createdAt,value
2018-11-20T00:00:56.304Z,4.34
2018-11-20T00:02:52.153Z,4.33
2018-11-20T00:12:42.744Z,4.45
2018-11-20T00:14:09.219Z,4.45
2018-11-20T00:15:36.390Z,4.45
2018-11-20T00:17:03.652Z,4.45
2018-11-20T00:18:31.009Z,4.41
2018-11-20T00:19:58.143Z,4.38
2018-11-20T00:22:23.548Z,4.30
2018-11-20T00:38:03.206Z,4.50
2018-11-20T00:39:29.597Z,4.48
2018-11-20T00:40:56.817Z,4.40
2018-11-20T00:42:23.993Z,4.40
2018-11-20T00:43:51.081Z,4.33
2018-11-20T00:45:18.305Z,4.26
2018-11-20T02:38:03.762Z,3.91
2018-11-20T02:39:30.150Z,3.93
2018-11-20T02:40:57.170Z,3.96
2018-11-20T02:42:24.182Z,3.95
2018-11-20T02:43:51.128Z,3.92
2018-11-20T02:45:18.334Z,3.92
2018-11-20T02:46:45.604Z,3.92
2018-11-20T02:48:12.571Z,3.91
2018-11-20T02:49:39.284Z,3.89
2018-11-20T02:51:06.524Z,3.89
2018-11-20T02:52:33.789Z,3.88
2018-11-20T02:54:00.905Z,3.89
2018-11-20T02:55:27.876Z,3.89
2018-11-20T02:56:55.279Z,3.90
2018-11-20T02:58:22.419Z,3.92
2018-11-20T02:59:49.814Z,3.92
2018-11-20T03:01:17.011Z,3.94
2018-11-20T03:02:44.113Z,3.94
2018-11-20T03:04:11.238Z,3.95
2018-11-20T03:05:38.408Z,3.96
2018-11-20T03:07:05.526Z,3.96
2018-11-20T03:08:32.772Z,3.97
2018-11-20T03:09:59.748Z,3.99
2018-11-20T03:11:26.871Z,4.01
2018-11-20T03:12:53.977Z,4.03
2018-11-20T03:14:21.178Z,4.03
2018-11-20T03:15:48.319Z,4.03
2018-11-20T03:17:15.470Z,4.04
2018-11-20T03:18:42.609Z,4.04
2018-11-20T03:20:09.738Z,4.05
2018-11-20T03:21:36.970Z,4.06
2018-11-20T03:23:04.248Z,4.05
2018-11-20T03:24:31.274Z,4.07
2018-11-20T03:25:58.409Z,4.09
2018-11-20T03:27:25.617Z,4.09
2018-11-20T03:28:52.733Z,4.10
2018-11-20T03:30:19.946Z,4.11
2018-11-20T03:31:47.098Z,4.11
2018-11-20T03:33:14.130Z,4.11
2018-11-20T03:34:41.311Z,4.11
2018-11-20T03:36:08.752Z,4.12
2018-11-20T03:37:35.518Z,4.12
2018-11-20T03:39:02.646Z,4.14
2018-11-20T03:40:29.804Z,4.10
2018-11-20T03:41:57.132Z,4.12
2018-11-20T03:43:24.307Z,4.10
2018-11-20T03:44:51.453Z,4.13
2018-11-20T03:46:18.624Z,4.11
2018-11-20T03:47:45.857Z,4.09
2018-11-20T03:49:13.003Z,4.05
2018-11-20T03:50:39.978Z,4.03
2018-11-20T03:52:07.068Z,3.99
2018-11-20T03:53:33.994Z,3.96
2018-11-20T03:55:00.897Z,3.92
2018-11-20T03:56:27.984Z,3.90
2018-11-20T03:57:54.959Z,3.88
2018-11-20T03:59:21.823Z,3.84
2018-11-20T04:00:48.971Z,3.80
2018-11-20T04:02:16.026Z,3.77
2018-11-20T04:03:43.171Z,3.73
2018-11-20T04:05:10.288Z,3.72
2018-11-20T04:06:37.273Z,3.65
2018-11-20T04:08:04.463Z,3.63
2018-11-20T04:09:31.380Z,3.61
2018-11-20T04:10:58.568Z,3.59
2018-11-20T04:12:25.766Z,3.58
2018-11-20T04:13:52.580Z,3.55
2018-11-20T04:15:19.844Z,3.52
2018-11-20T04:16:46.715Z,3.50
2018-11-20T04:18:13.902Z,3.49
2018-11-20T04:19:41.157Z,3.48
2018-11-20T04:21:08.089Z,3.47
2018-11-20T04:22:35.308Z,3.45
2018-11-20T04:24:02.347Z,3.42
2018-11-20T04:25:29.414Z,3.40
2018-11-20T04:26:56.452Z,3.39
2018-11-20T04:28:23.693Z,3.35
2018-11-20T04:29:50.857Z,3.36
2018-11-20T04:31:17.904Z,3.38
2018-11-20T04:32:45.202Z,3.38
2018-11-20T04:34:12.293Z,3.38
2018-11-20T04:35:39.569Z,3.42
2018-11-20T04:37:06.774Z,3.46
2018-11-20T04:38:33.907Z,3.47
2018-11-20T04:40:01.112Z,3.50
2018-11-20T04:41:28.099Z,3.53
2018-11-20T04:42:55.173Z,3.55
2018-11-20T04:44:22.326Z,3.57
2018-11-20T04:45:49.376Z,3.62
2018-11-20T04:47:16.564Z,3.64
2018-11-20T04:48:43.442Z,3.67
2018-11-20T04:50:10.738Z,3.69
2018-11-20T04:51:37.725Z,3.71
2018-11-20T04:53:05.015Z,3.72
2018-11-20T04:54:32.054Z,3.74
2018-11-20T04:55:59.351Z,3.75
2018-11-20T04:57:30.731Z,3.75
2018-11-20T04:58:53.744Z,3.76
2018-11-20T05:00:20.910Z,3.78
2018-11-20T05:01:47.962Z,3.79
2018-11-20T05:03:14.951Z,3.80
2018-11-20T05:04:41.996Z,3.81
2018-11-20T05:06:09.218Z,3.82
2018-11-20T05:07:36.214Z,3.82
2018-11-20T05:09:03.306Z,3.82
2018-11-20T05:10:30.470Z,3.83
2018-11-20T05:11:57.565Z,3.84
2018-11-20T05:13:24.834Z,3.85
2018-11-20T05:14:51.849Z,3.85
2018-11-20T05:16:19.018Z,3.82
2018-11-20T05:17:46.067Z,3.79
2018-11-20T05:19:13.153Z,3.76
2018-11-20T05:20:40.323Z,3.74
2018-11-20T05:22:07.549Z,3.70
2018-11-20T05:23:34.864Z,3.68
2018-11-20T05:25:02.090Z,3.65
2018-11-20T05:26:29.315Z,3.63
2018-11-20T05:27:56.458Z,3.61
2018-11-20T05:29:23.654Z,3.60
2018-11-20T05:30:50.745Z,3.60
2018-11-20T05:32:17.758Z,3.59
2018-11-20T05:33:44.996Z,3.59
2018-11-20T05:35:11.943Z,3.58
2018-11-20T05:36:38.823Z,3.59
2018-11-20T05:38:05.985Z,3.60
2018-11-20T05:39:32.972Z,3.61
2018-11-20T05:41:00.250Z,3.62
2018-11-20T05:42:27.263Z,3.63
2018-11-20T05:43:54.480Z,3.63
2018-11-20T05:45:21.680Z,3.62
2018-11-20T05:46:48.634Z,3.62
2018-11-20T05:48:15.831Z,3.63
2018-11-20T05:49:42.965Z,3.65
2018-11-20T05:51:10.258Z,3.64
2018-11-20T05:52:37.402Z,3.64
2018-11-20T05:54:04.221Z,3.65
2018-11-20T05:55:31.382Z,3.66
2018-11-20T05:56:58.702Z,3.67
2018-11-20T05:58:25.840Z,3.68
2018-11-20T05:59:53.055Z,3.71
2018-11-20T06:01:20.159Z,3.71
2018-11-20T06:02:47.347Z,3.72
2018-11-20T06:04:14.546Z,3.74
2018-11-20T06:05:41.690Z,3.75
2018-11-20T06:07:08.893Z,3.75
2018-11-20T06:08:35.956Z,3.77
2018-11-20T06:10:03.341Z,3.77
2018-11-20T06:11:30.428Z,3.80
2018-11-20T06:12:57.701Z,3.82
2018-11-20T06:14:24.803Z,3.83
2018-11-20T06:15:52.051Z,3.83
2018-11-20T06:17:19.315Z,3.83
2018-11-20T06:18:46.428Z,3.84
2018-11-20T06:20:13.611Z,3.85
2018-11-20T06:21:40.799Z,3.88
2018-11-20T06:23:08.080Z,3.88
2018-11-20T06:24:35.286Z,3.84
2018-11-20T06:26:02.386Z,3.84
2018-11-20T06:27:29.232Z,3.83
2018-11-20T06:28:56.654Z,3.84
2018-11-20T06:30:23.588Z,3.82
2018-11-20T06:31:50.449Z,3.84
2018-11-20T06:33:17.665Z,3.86
2018-11-20T06:34:44.744Z,3.87
2018-11-20T06:36:11.849Z,3.87
2018-11-20T06:37:38.825Z,3.87
2018-11-20T06:39:05.989Z,3.86
2018-11-20T06:40:33.257Z,3.87
2018-11-20T06:42:00.559Z,3.89
2018-11-20T06:43:27.606Z,3.90
2018-11-20T06:44:54.732Z,3.91
2018-11-20T06:46:21.915Z,3.92
2018-11-20T06:47:49.073Z,3.95
2018-11-20T06:49:16.323Z,3.98
2018-11-20T06:50:43.236Z,3.98
2018-11-20T06:52:10.244Z,3.99
2018-11-20T06:53:37.692Z,4.02
2018-11-20T06:55:04.435Z,4.01
2018-11-20T06:56:31.256Z,3.99
2018-11-20T06:57:58.599Z,3.99
2018-11-20T06:59:25.530Z,3.98
2018-11-20T07:00:52.710Z,3.99
2018-11-20T07:02:19.713Z,3.97
2018-11-20T07:03:47.078Z,3.96
2018-11-20T07:05:14.468Z,3.95
2018-11-20T07:06:41.542Z,3.92
2018-11-20T07:08:08.823Z,3.92
2018-11-20T07:09:35.973Z,3.91
2018-11-20T07:11:03.003Z,3.90
2018-11-20T07:12:29.882Z,3.88
2018-11-20T07:13:56.932Z,3.83
2018-11-20T07:15:24.243Z,3.82
2018-11-20T07:16:57.361Z,3.79
2018-11-20T07:18:18.527Z,3.81
2018-11-20T07:19:45.881Z,3.81
2018-11-20T07:21:12.833Z,3.78
2018-11-20T07:22:40.025Z,3.77
2018-11-20T07:24:07.189Z,3.77
2018-11-20T07:25:34.261Z,3.78
2018-11-20T07:27:01.486Z,3.80
2018-11-20T07:28:28.690Z,3.81
2018-11-20T07:29:55.859Z,3.82
2018-11-20T07:31:23.172Z,3.84
2018-11-20T07:32:50.423Z,3.84
2018-11-20T07:34:17.344Z,3.83
2018-11-20T07:35:44.692Z,3.86
2018-11-20T07:37:11.871Z,3.85
2018-11-20T07:38:38.600Z,3.84
2018-11-20T07:40:05.892Z,3.84
2018-11-20T07:41:33.040Z,3.84
2018-11-20T07:43:00.186Z,3.85
2018-11-20T07:44:27.337Z,3.83
2018-11-20T07:45:54.349Z,3.83
2018-11-20T07:47:21.471Z,3.85
2018-11-20T07:48:48.691Z,3.84
2018-11-20T07:50:15.930Z,3.82
2018-11-20T07:51:42.926Z,3.84
2018-11-20T07:53:09.937Z,3.87
2018-11-20T07:54:36.864Z,3.86
2018-11-20T07:56:05.985Z,3.87
2018-11-20T07:57:31.058Z,3.90
2018-11-20T07:58:58.113Z,3.92
2018-11-20T08:00:25.014Z,3.91
2018-11-20T08:01:52.028Z,3.88
2018-11-20T08:03:19.260Z,3.87
2018-11-20T08:04:46.434Z,3.88
2018-11-20T08:06:13.530Z,3.88
2018-11-20T08:07:40.256Z,3.85
2018-11-20T08:09:07.439Z,3.87
2018-11-20T08:10:34.419Z,3.87
2018-11-20T08:12:01.766Z,3.86
2018-11-20T08:13:28.850Z,3.86
2018-11-20T08:14:55.848Z,3.86
2018-11-20T08:16:22.801Z,3.88
2018-11-20T08:17:49.921Z,3.90
2018-11-20T08:19:17.031Z,3.91
2018-11-20T08:20:44.332Z,3.92
2018-11-20T08:22:11.446Z,3.94
2018-11-20T08:23:38.639Z,3.93
2018-11-20T08:25:05.937Z,3.93
2018-11-20T08:26:32.992Z,3.94
2018-11-20T08:27:59.773Z,3.91
2018-11-20T08:29:26.792Z,4.16
2018-11-20T08:30:53.887Z,3.95
2018-11-20T08:32:21.051Z,3.92
2018-11-20T08:33:48.546Z,3.91
2018-11-20T08:35:15.584Z,3.92
2018-11-20T08:36:42.538Z,3.91
2018-11-20T08:38:09.617Z,3.91
2018-11-20T08:39:37.005Z,3.93
2018-11-20T08:41:03.852Z,3.96
2018-11-20T08:42:30.723Z,3.96
2018-11-20T08:43:57.920Z,3.94
2018-11-20T08:45:24.971Z,3.97
2018-11-20T08:46:52.269Z,3.99
2018-11-20T08:48:19.638Z,3.99
2018-11-20T08:49:46.715Z,4.01
2018-11-20T08:51:13.693Z,4.01
2018-11-20T08:52:40.844Z,4.04
2018-11-20T08:54:07.961Z,4.05
2018-11-20T08:55:35.230Z,4.06
2018-11-20T08:57:02.342Z,4.09
2018-11-20T08:58:29.472Z,4.11
2018-11-20T08:59:56.407Z,4.11
2018-11-20T09:01:23.733Z,4.12
2018-11-20T09:02:50.801Z,4.16
2018-11-20T09:04:17.778Z,4.17
2018-11-20T09:05:45.092Z,4.21
2018-11-20T09:07:12.203Z,4.19
2018-11-20T09:08:39.206Z,4.20
2018-11-20T09:10:06.675Z,4.22
2018-11-20T09:11:33.795Z,4.25
2018-11-20T09:13:01.001Z,4.28
2018-11-20T09:14:28.211Z,4.29
2018-11-20T09:15:55.356Z,4.29
2018-11-20T09:17:22.514Z,4.30
2018-11-20T09:18:49.635Z,4.31
2018-11-20T09:20:17.074Z,4.31
2018-11-20T09:21:44.120Z,4.31
2018-11-20T09:23:11.246Z,4.31
2018-11-20T09:24:38.584Z,4.33
2018-11-20T09:26:05.750Z,4.35
2018-11-20T09:27:32.700Z,4.34
2018-11-20T09:28:59.867Z,4.35
2018-11-20T09:30:27.016Z,4.36
2018-11-20T09:31:54.032Z,4.37
2018-11-20T09:33:21.234Z,4.38
2018-11-20T09:34:48.775Z,4.41
2018-11-20T09:36:15.735Z,4.45
2018-11-20T09:37:42.969Z,4.50
2018-11-20T09:39:10.170Z,4.49
2018-11-20T09:40:37.351Z,4.49
2018-11-20T09:42:04.700Z,4.49
2018-11-20T09:43:31.938Z,4.50
2018-11-20T09:44:59.084Z,4.52
2018-11-20T09:46:26.070Z,4.57
2018-11-20T09:47:53.043Z,4.61
2018-11-20T09:49:20.120Z,4.60
2018-11-20T09:50:47.285Z,4.54
2018-11-20T09:52:14.384Z,4.52
2018-11-20T09:53:43.179Z,4.52
2018-11-20T09:55:08.387Z,4.52
2018-11-20T09:56:35.430Z,4.54
2018-11-20T09:58:02.646Z,4.57
2018-11-20T09:59:29.837Z,4.55
2018-11-20T10:00:56.699Z,4.54
2018-11-20T10:02:23.873Z,4.54
2018-11-20T10:03:51.241Z,4.55
2018-11-20T10:05:18.418Z,4.55
2018-11-20T10:06:45.519Z,4.53
2018-11-20T10:08:12.345Z,4.51
2018-11-20T10:09:39.699Z,4.55
2018-11-20T10:11:06.666Z,4.54
2018-11-20T10:12:33.864Z,4.55
2018-11-20T10:14:01.157Z,4.55
2018-11-20T10:15:28.310Z,4.52
2018-11-20T10:16:55.271Z,4.52
2018-11-20T10:18:22.343Z,4.53
2018-11-20T10:19:49.197Z,4.52
2018-11-20T10:21:16.152Z,4.54
2018-11-20T10:22:43.284Z,4.51
2018-11-20T10:24:10.254Z,4.51
2018-11-20T10:25:37.393Z,4.51
2018-11-20T10:27:04.244Z,4.49
2018-11-20T10:28:31.689Z,4.52
2018-11-20T10:29:58.742Z,4.53
2018-11-20T10:31:26.024Z,4.52
2018-11-20T10:32:53.135Z,4.53
2018-11-20T10:34:20.347Z,4.52
2018-11-20T10:35:47.344Z,4.53
2018-11-20T10:37:14.646Z,4.50
2018-11-20T10:38:41.681Z,4.50
2018-11-20T10:40:08.817Z,4.50
2018-11-20T10:41:36.183Z,4.48
2018-11-20T10:43:03.128Z,4.45
2018-11-20T10:44:30.471Z,4.41
2018-11-20T10:45:57.708Z,4.40
2018-11-20T10:47:24.723Z,4.44
2018-11-20T10:48:52.045Z,4.40
2018-11-20T10:50:19.272Z,4.44
2018-11-20T10:51:46.535Z,4.48
2018-11-20T10:53:13.719Z,4.46
2018-11-20T10:54:40.971Z,4.43
2018-11-20T10:56:08.143Z,4.43
2018-11-20T10:57:35.248Z,4.43
2018-11-20T10:59:02.425Z,4.41
2018-11-20T11:00:29.559Z,4.38
2018-11-20T11:01:56.837Z,4.37
2018-11-20T11:03:24.076Z,4.41
2018-11-20T11:04:51.267Z,4.43
2018-11-20T11:06:18.613Z,4.42
2018-11-20T11:07:45.762Z,4.40
2018-11-20T11:09:12.836Z,4.41
2018-11-20T11:10:39.855Z,4.39
2018-11-20T11:12:07.110Z,4.42
2018-11-20T11:13:34.157Z,4.46
2018-11-20T11:15:01.517Z,4.43
2018-11-20T11:16:28.673Z,4.41
2018-11-20T11:17:55.877Z,4.43
2018-11-20T11:19:23.255Z,4.45
2018-11-20T11:20:50.431Z,4.39
2018-11-20T11:22:17.411Z,4.37
2018-11-20T11:23:44.698Z,4.35
2018-11-20T11:25:11.870Z,4.30
2018-11-20T11:26:39.072Z,4.33
2018-11-20T11:28:06.087Z,4.34
2018-11-20T11:29:33.390Z,4.33
2018-11-20T11:31:00.738Z,4.33
2018-11-20T11:32:27.902Z,4.35
2018-11-20T11:33:54.849Z,4.34
2018-11-20T11:35:22.038Z,4.32
2018-11-20T11:36:49.405Z,4.32
2018-11-20T11:38:16.590Z,4.31
2018-11-20T11:39:43.672Z,4.31
2018-11-20T11:41:10.894Z,4.26
2018-11-20T11:42:37.876Z,4.28
2018-11-20T11:44:05.164Z,4.29
2018-11-20T11:45:32.429Z,4.25
2018-11-20T11:46:59.661Z,4.28
2018-11-20T11:48:26.780Z,4.29
2018-11-20T11:49:53.933Z,4.31
2018-11-20T11:51:21.419Z,4.31
2018-11-20T11:52:48.157Z,4.30
2018-11-20T11:54:15.547Z,4.32
2018-11-20T11:55:42.749Z,4.34
2018-11-20T11:57:09.927Z,4.34
2018-11-20T11:58:37.301Z,4.34
2018-11-20T12:00:04.294Z,4.31
2018-11-20T12:04:26.118Z,4.29
2018-11-20T12:05:55.866Z,4.28
2018-11-20T12:07:20.374Z,4.30
2018-11-20T12:08:47.539Z,4.31
2018-11-20T12:10:14.558Z,4.29
2018-11-20T12:11:41.895Z,4.28
2018-11-20T12:13:09.018Z,4.28
2018-11-20T12:14:36.118Z,4.33
2018-11-20T12:16:03.309Z,4.34
2018-11-20T12:17:30.401Z,4.32
2018-11-20T12:18:57.475Z,4.30
2018-11-20T12:20:24.752Z,4.32
2018-11-20T12:21:52.027Z,4.31
2018-11-20T12:23:19.236Z,4.32
2018-11-20T12:24:47.342Z,4.27
2018-11-20T12:26:13.705Z,4.25
2018-11-20T12:27:41.032Z,4.27
2018-11-20T12:29:08.035Z,4.30
2018-11-20T12:30:35.224Z,4.30
2018-11-20T12:32:02.348Z,4.31
2018-11-20T12:33:29.620Z,4.32
2018-11-20T12:34:57.061Z,4.28
2018-11-20T12:36:24.268Z,4.31
2018-11-20T12:37:51.541Z,4.30
2018-11-20T12:39:19.826Z,4.33
2018-11-20T12:40:45.883Z,4.34
2018-11-20T12:42:13.062Z,4.35
2018-11-20T12:43:40.401Z,4.36
2018-11-20T12:45:07.674Z,4.39
2018-11-20T12:46:35.021Z,4.39
2018-11-20T12:48:03.847Z,4.38
2018-11-20T12:49:30.063Z,4.39
2018-11-20T12:50:56.767Z,4.35
2018-11-20T12:52:24.032Z,4.37
2018-11-20T12:53:51.107Z,4.41
2018-11-20T12:55:18.219Z,4.43
2018-11-20T12:56:45.546Z,4.39
2018-11-20T12:58:13.954Z,4.39
2018-11-20T12:59:40.045Z,4.38
2018-11-20T13:01:07.230Z,4.40
2018-11-20T13:02:34.556Z,4.41
2018-11-20T13:04:02.461Z,4.43
2018-11-20T13:05:29.114Z,4.44
2018-11-20T13:06:56.305Z,4.46
2018-11-20T13:08:23.764Z,4.46
2018-11-20T13:09:50.959Z,4.48
2018-11-20T13:11:18.275Z,4.49
2018-11-20T13:12:45.611Z,4.50
2018-11-20T13:14:12.788Z,4.44
2018-11-20T13:15:40.058Z,4.46
2018-11-20T13:17:08.950Z,4.42
2018-11-20T13:18:34.290Z,4.44
2018-11-20T13:20:03.833Z,4.41
2018-11-20T13:21:28.635Z,4.35
2018-11-20T13:22:55.751Z,4.36
2018-11-20T13:24:22.882Z,4.35
2018-11-20T13:25:50.152Z,4.37
2018-11-20T13:27:17.423Z,4.40
2018-11-20T13:28:44.746Z,4.40
2018-11-20T13:30:11.809Z,4.40
2018-11-20T13:31:38.908Z,4.38
2018-11-20T13:33:06.243Z,4.36
2018-11-20T13:34:33.477Z,4.34
2018-11-20T13:36:00.842Z,4.35
2018-11-20T13:37:28.296Z,4.38
2018-11-20T13:38:55.476Z,4.36
2018-11-20T13:40:22.594Z,4.33
2018-11-20T13:41:49.843Z,4.33
2018-11-20T13:43:17.095Z,4.34
2018-11-20T13:44:44.140Z,4.36
2018-11-20T13:46:11.543Z,4.31
2018-11-20T13:47:38.505Z,4.33
2018-11-20T13:49:05.747Z,4.33
2018-11-20T13:50:32.855Z,4.32
2018-11-20T13:51:59.842Z,4.30
2018-11-20T13:53:26.963Z,4.30
2018-11-20T13:54:53.967Z,4.30
2018-11-20T13:56:21.286Z,4.31
2018-11-20T13:57:48.435Z,4.32
2018-11-20T13:59:15.465Z,4.35
2018-11-20T14:00:42.712Z,4.32
2018-11-20T14:02:10.010Z,4.33
2018-11-20T14:03:42.850Z,4.28
2018-11-20T14:05:04.342Z,4.27
2018-11-20T14:06:31.608Z,4.22
2018-11-20T14:07:58.698Z,4.21
2018-11-20T14:09:25.878Z,4.20
2018-11-20T14:10:53.070Z,4.18
2018-11-20T14:12:20.145Z,4.20
2018-11-20T14:13:47.376Z,4.20
2018-11-20T14:15:14.516Z,4.21
2018-11-20T14:16:41.569Z,4.19
2018-11-20T14:18:08.757Z,4.21
2018-11-20T14:19:35.765Z,4.16
2018-11-20T14:21:03.142Z,4.16
2018-11-20T14:22:36.081Z,4.20
2018-11-20T14:23:57.171Z,4.21
2018-11-20T14:25:24.258Z,4.20
2018-11-20T14:26:51.308Z,4.21
2018-11-20T14:28:18.539Z,4.22
2018-11-20T14:29:45.874Z,4.24
2018-11-20T14:31:12.754Z,4.24
2018-11-20T14:32:40.155Z,4.26
2018-11-20T14:34:07.267Z,4.24
2018-11-20T14:35:34.437Z,4.25
2018-11-20T14:37:01.578Z,4.23
2018-11-20T14:38:28.843Z,4.24
2018-11-20T14:39:56.071Z,4.22
2018-11-20T14:41:23.061Z,4.23
2018-11-20T14:42:50.311Z,4.22
2018-11-20T14:44:17.484Z,4.20
2018-11-20T14:45:44.626Z,4.20
2018-11-20T14:47:11.571Z,4.20
2018-11-20T14:48:38.694Z,4.19
2018-11-20T14:50:05.706Z,4.20
2018-11-20T14:51:32.966Z,4.21
2018-11-20T14:52:59.975Z,4.19
2018-11-20T14:54:26.695Z,4.22
2018-11-20T14:55:53.989Z,4.23
2018-11-20T14:57:20.906Z,4.19
2018-11-20T14:58:48.164Z,4.17
2018-11-20T15:00:15.195Z,4.20
2018-11-20T15:01:42.203Z,4.19
2018-11-20T15:03:09.356Z,4.17
2018-11-20T15:04:36.281Z,4.16
2018-11-20T15:06:03.486Z,4.18
2018-11-20T15:07:30.701Z,4.15
2018-11-20T15:08:57.647Z,4.14
2018-11-20T15:10:24.883Z,4.14
2018-11-20T15:11:52.276Z,4.12
2018-11-20T15:13:19.464Z,4.10
2018-11-20T15:14:46.592Z,4.11
2018-11-20T15:16:13.571Z,4.11
2018-11-20T15:17:40.784Z,4.12
2018-11-20T15:19:08.036Z,4.12
2018-11-20T15:20:35.035Z,4.12
2018-11-20T15:22:02.365Z,4.11
2018-11-20T15:23:29.496Z,4.11
2018-11-20T15:24:56.532Z,4.11
2018-11-20T15:26:23.821Z,4.10
2018-11-20T15:27:50.625Z,4.09
2018-11-20T15:29:17.728Z,4.06
2018-11-20T15:30:44.798Z,4.04
2018-11-20T15:32:12.066Z,4.03
2018-11-20T15:33:39.314Z,4.03
2018-11-20T15:35:06.330Z,4.00
2018-11-20T15:36:33.502Z,3.98
2018-11-20T15:38:00.682Z,3.96
2018-11-20T15:39:27.838Z,3.96
2018-11-20T15:40:54.859Z,3.93
2018-11-20T15:42:22.059Z,3.93
2018-11-20T15:43:49.066Z,3.93
2018-11-20T15:45:16.352Z,3.92
2018-11-20T15:46:43.390Z,3.88
2018-11-20T15:48:10.641Z,3.90
2018-11-20T15:49:37.867Z,3.91
2018-11-20T15:51:04.910Z,3.89
2018-11-20T15:52:32.253Z,3.89
2018-11-20T15:53:59.289Z,3.88
2018-11-20T15:55:26.548Z,3.85
2018-11-20T15:56:53.679Z,3.87
2018-11-20T15:58:20.860Z,3.85
2018-11-20T15:59:48.162Z,3.83
2018-11-20T16:01:18.384Z,3.84
2018-11-20T16:02:42.807Z,3.84
2018-11-20T16:04:09.940Z,3.83
2018-11-20T16:05:36.966Z,3.85
2018-11-20T16:07:04.168Z,3.84
2018-11-20T16:08:31.036Z,3.82
2018-11-20T16:09:58.209Z,3.81
2018-11-20T16:11:25.384Z,3.78
2018-11-20T16:12:52.610Z,3.77
2018-11-20T16:14:19.799Z,3.78
2018-11-20T16:15:46.852Z,3.76
2018-11-20T16:17:17.266Z,3.76
2018-11-20T16:18:41.128Z,3.75
2018-11-20T16:20:08.033Z,3.72
2018-11-20T16:21:35.278Z,3.73
2018-11-20T16:23:02.314Z,3.72
2018-11-20T16:24:29.575Z,3.68
2018-11-20T16:25:56.901Z,3.66
2018-11-20T16:27:23.919Z,3.67
2018-11-20T16:28:50.863Z,3.63
2018-11-20T16:30:18.087Z,3.63
2018-11-20T16:31:45.222Z,3.55
2018-11-20T16:33:12.389Z,3.52
2018-11-20T16:34:39.578Z,3.53
2018-11-20T16:36:06.767Z,3.54
2018-11-20T16:37:33.980Z,3.53
2018-11-20T16:39:01.129Z,3.56
2018-11-20T16:40:28.265Z,3.55
2018-11-20T16:41:59.816Z,3.53
2018-11-20T16:43:22.560Z,3.51
2018-11-20T16:44:49.712Z,3.48
2018-11-20T16:46:16.733Z,3.43
2018-11-20T16:47:43.701Z,3.39
2018-11-20T16:49:10.903Z,3.39
2018-11-20T16:50:38.169Z,3.32
2018-11-20T16:52:05.166Z,3.30
2018-11-20T16:53:32.205Z,3.27
2018-11-20T16:54:59.434Z,3.27
2018-11-20T16:56:26.438Z,3.28
2018-11-20T16:57:53.272Z,3.25
2018-11-20T16:59:20.414Z,3.26
2018-11-20T17:00:47.574Z,3.26
2018-11-20T17:02:14.881Z,3.23
2018-11-20T17:03:41.743Z,3.20
2018-11-20T17:05:09.031Z,3.18
2018-11-20T17:06:36.006Z,3.17
2018-11-20T17:08:03.071Z,3.16
2018-11-20T17:09:30.183Z,3.14
2018-11-20T17:10:57.201Z,3.17
2018-11-20T17:12:24.524Z,3.17
2018-11-20T17:13:51.417Z,3.17
2018-11-20T17:15:18.304Z,3.17
2018-11-20T17:16:45.442Z,3.17
2018-11-20T17:18:12.384Z,3.16
2018-11-20T17:19:39.641Z,3.16
2018-11-20T17:21:06.754Z,3.18
2018-11-20T17:22:34.075Z,3.16
2018-11-20T17:24:03.633Z,3.18
2018-11-20T17:25:28.267Z,3.18
2018-11-20T17:26:55.343Z,3.17
2018-11-20T17:28:22.453Z,3.18
2018-11-20T17:29:49.446Z,3.20
2018-11-20T17:31:16.535Z,3.19
2018-11-20T17:32:43.731Z,3.18
2018-11-20T17:34:10.844Z,3.19
2018-11-20T17:35:38.102Z,3.21
2018-11-20T17:37:05.134Z,3.21
2018-11-20T17:38:32.553Z,3.20
2018-11-20T17:39:59.686Z,3.24
2018-11-20T17:41:27.018Z,3.24
2018-11-20T17:42:54.150Z,3.23
2018-11-20T17:44:21.265Z,3.22
2018-11-20T17:45:48.361Z,3.20
2018-11-20T17:47:15.441Z,3.20
2018-11-20T17:48:42.397Z,3.17
2018-11-20T17:50:09.449Z,3.16
2018-11-20T17:51:36.734Z,3.14
2018-11-20T17:53:03.815Z,3.08
2018-11-20T17:54:30.865Z,3.08
2018-11-20T17:55:58.060Z,3.04
2018-11-20T17:57:25.066Z,3.04
2018-11-20T17:58:52.178Z,3.02
2018-11-20T18:00:19.018Z,3.00
2018-11-20T18:01:46.093Z,2.97
2018-11-20T18:03:13.289Z,2.95
2018-11-20T18:04:40.475Z,2.92
2018-11-20T18:06:07.570Z,2.93
2018-11-20T18:07:34.344Z,2.89
2018-11-20T18:09:01.620Z,2.88
2018-11-20T18:10:28.653Z,2.85
2018-11-20T18:11:55.718Z,2.82
2018-11-20T18:13:23.000Z,2.82
2018-11-20T18:14:50.104Z,2.83
2018-11-20T18:16:17.339Z,2.79
2018-11-20T18:17:44.516Z,2.72
2018-11-20T18:19:11.680Z,2.71
2018-11-20T18:20:48.367Z,2.72
2018-11-20T18:22:24.888Z,2.73
2018-11-20T18:24:30.762Z,2.70
2018-11-20T18:41:37.849Z,2.88
2018-11-20T18:43:04.276Z,2.90
2018-11-20T18:44:31.293Z,2.90
2018-11-20T18:45:58.358Z,2.93
2018-11-20T18:47:25.434Z,2.93
2018-11-20T18:49:12.087Z,2.93
2018-11-20T18:50:38.997Z,2.88
2018-11-20T18:52:05.888Z,2.87
2018-11-20T18:53:32.970Z,2.85
2018-11-20T18:56:37.242Z,2.84
2018-11-20T18:58:03.784Z,2.86
2018-11-20T18:59:30.724Z,2.86
2018-11-20T19:00:57.677Z,2.88
2018-11-20T19:02:24.639Z,2.86
2018-11-20T19:06:26.799Z,2.86
2018-11-20T19:07:53.282Z,2.87
2018-11-20T19:09:20.111Z,2.87
2018-11-20T19:10:47.308Z,2.89
2018-11-20T19:12:14.193Z,2.89
2018-11-20T19:13:41.066Z,2.86
2018-11-20T19:15:08.081Z,2.87
2018-11-20T19:16:35.310Z,2.87
2018-11-20T19:18:02.389Z,2.88
2018-11-20T19:19:29.488Z,2.87
2018-11-20T19:20:56.651Z,2.89
2018-11-20T19:22:26.835Z,2.88
2018-11-20T19:23:50.802Z,2.89
2018-11-20T19:25:17.942Z,2.90
2018-11-20T19:26:44.840Z,2.88
2018-11-20T19:28:11.827Z,2.91
2018-11-20T19:29:39.119Z,2.88
2018-11-20T19:31:06.246Z,2.89
2018-11-20T19:32:33.172Z,2.90
2018-11-20T19:34:00.265Z,2.91
2018-11-20T19:35:27.543Z,2.94
2018-11-20T19:36:54.750Z,2.96
2018-11-20T19:38:21.827Z,2.98
2018-11-20T19:39:48.524Z,2.96
2018-11-20T19:41:15.629Z,2.94
2018-11-20T19:42:42.786Z,2.93
2018-11-20T19:44:09.747Z,2.97
2018-11-20T19:45:36.825Z,2.96
2018-11-20T19:47:04.005Z,2.99
2018-11-20T19:48:30.949Z,3.01
2018-11-20T19:49:58.053Z,3.00
2018-11-20T19:51:25.264Z,2.98
2018-11-20T19:52:52.392Z,2.96
2018-11-20T19:54:19.457Z,2.95
2018-11-20T19:55:46.513Z,2.92
2018-11-20T19:57:13.878Z,2.93
2018-11-20T19:58:40.842Z,2.91
2018-11-20T20:00:07.721Z,2.95
2018-11-20T20:01:34.755Z,2.98
2018-11-20T20:03:01.718Z,2.98
2018-11-20T20:04:28.768Z,2.93
2018-11-20T20:05:55.905Z,2.91
2018-11-20T20:07:23.158Z,2.90
2018-11-20T20:08:50.096Z,2.91
2018-11-20T20:10:18.301Z,2.93
2018-11-20T20:11:43.844Z,2.91
2018-11-20T20:13:10.827Z,2.90
2018-11-20T20:14:37.967Z,2.89
2018-11-20T20:16:04.845Z,2.93
2018-11-20T20:17:32.299Z,2.94
2018-11-20T20:18:59.418Z,2.93
2018-11-20T20:20:26.332Z,2.94
2018-11-20T20:21:53.433Z,2.88
2018-11-20T20:23:20.492Z,2.85
2018-11-20T20:24:47.749Z,2.85
2018-11-20T20:26:14.849Z,2.85
2018-11-20T20:27:41.869Z,2.84
2018-11-20T20:29:08.993Z,2.80
2018-11-20T20:30:35.796Z,2.82
2018-11-20T20:32:03.203Z,2.84
2018-11-20T20:33:30.216Z,2.83
2018-11-20T20:34:57.324Z,2.82
2018-11-20T20:36:24.456Z,2.84
2018-11-20T20:37:51.679Z,2.84
2018-11-20T20:39:18.681Z,2.85
2018-11-20T20:40:45.960Z,2.82
2018-11-20T20:42:12.935Z,2.82
2018-11-20T20:43:39.910Z,2.86
2018-11-20T20:45:07.017Z,2.87
2018-11-20T20:46:34.139Z,2.84
2018-11-20T20:48:01.245Z,2.85
2018-11-20T20:49:28.309Z,2.84
2018-11-20T20:50:55.464Z,2.81
2018-11-20T20:52:22.293Z,2.79
2018-11-20T20:53:49.478Z,2.80
2018-11-20T20:55:16.788Z,2.79
2018-11-20T20:56:43.821Z,2.75
2018-11-20T20:58:11.006Z,2.77
2018-11-20T20:59:37.974Z,2.77
2018-11-20T21:01:05.105Z,2.75
2018-11-20T21:02:31.941Z,2.77
2018-11-20T21:03:58.997Z,2.74
2018-11-20T21:05:25.930Z,2.72
2018-11-20T21:06:52.664Z,2.75
2018-11-20T21:08:19.603Z,2.70
2018-11-20T21:09:46.859Z,2.72
2018-11-20T21:11:13.819Z,2.72
2018-11-20T21:12:40.875Z,2.71
2018-11-20T21:14:08.034Z,2.71
2018-11-20T21:15:34.991Z,2.71
2018-11-20T21:17:02.000Z,2.69
2018-11-20T21:18:29.168Z,2.66
2018-11-20T21:19:56.563Z,2.64
2018-11-20T21:21:23.506Z,2.65
2018-11-20T21:22:50.577Z,2.68
2018-11-20T21:24:17.699Z,2.69
2018-11-20T21:25:44.725Z,2.67
2018-11-20T21:27:11.775Z,2.66
2018-11-20T21:28:38.770Z,2.66
2018-11-20T21:30:05.754Z,2.62
2018-11-20T21:31:32.820Z,2.60
2018-11-20T21:32:59.651Z,2.58
2018-11-20T21:34:26.843Z,2.60
2018-11-20T21:35:53.948Z,2.60
2018-11-20T21:37:20.962Z,2.63
2018-11-20T21:38:47.954Z,2.64
2018-11-20T21:40:14.701Z,2.62
2018-11-20T21:41:42.076Z,2.62
2018-11-20T21:43:09.208Z,2.61
2018-11-20T21:44:36.319Z,2.61
2018-11-20T21:46:03.222Z,2.63
2018-11-20T21:47:30.398Z,2.64
2018-11-20T21:48:57.590Z,2.65
2018-11-20T21:50:24.464Z,2.64
2018-11-20T21:51:51.526Z,2.62
2018-11-20T21:53:18.515Z,2.64
2018-11-20T21:54:45.693Z,2.62
2018-11-20T21:56:12.424Z,2.61
2018-11-20T21:57:39.642Z,2.61
2018-11-20T21:59:06.688Z,2.60